createdAt,value
2022-11-01T00:51:41.552Z,54.15
2022-11-01T00:54:09.837Z,52.40
2022-11-01T00:56:39.643Z,61.85
2022-11-01T00:59:07.948Z,79.93
2022-11-01T01:01:36.397Z,92.83
2022-11-01T01:04:05.075Z,98.82
2022-11-01T01:06:33.488Z,94.27
2022-11-01T01:09:02.571Z,95.13
2022-11-01T01:11:32.977Z,99.20
2022-11-01T01:14:04.971Z,100.57
2022-11-01T01:16:33.381Z,100.00
2022-11-01T01:19:01.641Z,101.10
2022-11-01T01:21:29.921Z,99.88
2022-11-01T01:23:58.142Z,99.38
2022-11-01T01:26:26.326Z,96.97
2022-11-01T01:28:55.857Z,96.50
2022-11-01T01:31:25.701Z,100.00
2022-11-01T01:33:53.952Z,98.22
2022-11-01T01:36:22.185Z,100.88
2022-11-01T01:38:52.655Z,96.50
2022-11-01T01:41:38.413Z,96.18
2022-11-01T01:44:40.051Z,92.82
2022-11-01T01:47:17.496Z,91.07
2022-11-01T01:49:46.590Z,96.18
2022-11-01T01:52:15.476Z,89.50
2022-11-01T01:54:44.300Z,87.35
2022-11-01T01:57:13.194Z,78.40
2022-11-01T01:59:42.205Z,76.22
2022-11-01T02:02:13.326Z,78.60
2022-11-01T02:04:44.999Z,85.28
2022-11-01T02:07:13.715Z,82.83
2022-11-01T02:09:43.001Z,84.05
2022-11-01T02:12:13.592Z,81.10
2022-11-01T02:14:43.389Z,84.38
2022-11-01T02:17:21.129Z,82.35
2022-11-01T02:20:22.851Z,81.70
2022-11-01T02:23:12.842Z,84.43
2022-11-01T02:26:01.542Z,83.03
2022-11-01T02:28:46.239Z,87.53
2022-11-01T02:31:34.044Z,82.82
2022-11-01T02:34:08.851Z,84.75
2022-11-01T02:36:45.489Z,81.68
2022-11-01T02:39:21.264Z,79.53
2022-11-01T02:41:55.726Z,76.22
2022-11-01T02:44:27.466Z,80.25
2022-11-01T02:47:03.698Z,80.68
2022-11-01T02:49:37.167Z,81.00
2022-11-01T02:52:08.761Z,79.25
2022-11-01T02:54:41.525Z,77.33
2022-11-01T02:57:27.041Z,73.93
2022-11-01T03:00:02.346Z,78.20
2022-11-01T03:02:41.610Z,74.55
2022-11-01T03:05:18.222Z,77.25
2022-11-01T03:07:52.680Z,77.40
2022-11-01T03:10:24.031Z,79.68
2022-11-01T03:13:00.470Z,74.37
2022-11-01T03:15:33.759Z,76.25
2022-11-01T03:18:05.725Z,78.90
2022-11-01T03:20:48.495Z,82.90
2022-11-01T03:23:20.207Z,78.60
2022-11-01T03:25:56.336Z,82.53
2022-11-01T03:28:28.065Z,78.33
2022-11-01T03:31:01.764Z,83.55
2022-11-01T03:33:31.923Z,81.15
2022-11-01T03:36:11.854Z,84.63
2022-11-01T03:38:50.658Z,83.03
2022-11-01T03:41:20.601Z,81.13
2022-11-01T03:43:49.285Z,87.10
2022-11-01T03:46:17.886Z,84.03
2022-11-01T03:48:48.371Z,80.97
2022-11-01T03:51:18.064Z,82.63
2022-11-01T03:53:46.389Z,84.85
2022-11-01T03:56:14.747Z,85.22
2022-11-01T03:58:44.255Z,82.40
2022-11-01T04:01:14.462Z,82.07
2022-11-01T04:03:43.288Z,83.55
2022-11-01T04:06:11.690Z,81.07
2022-11-01T04:08:42.167Z,83.80
2022-11-01T04:11:10.538Z,86.45
2022-11-01T04:13:39.090Z,83.53
2022-11-01T04:16:24.937Z,88.93
2022-11-01T04:19:09.658Z,91.50
2022-11-01T04:21:40.739Z,87.25
2022-11-01T04:24:11.372Z,87.57
2022-11-01T04:26:42.017Z,89.25
2022-11-01T04:29:10.321Z,90.45
2022-11-01T04:31:38.580Z,90.10
2022-11-01T04:34:07.130Z,90.10
2022-11-01T04:36:35.447Z,90.43
2022-11-01T04:39:05.961Z,83.57
2022-11-01T04:41:35.752Z,86.85
2022-11-01T04:44:04.059Z,87.72
2022-11-01T04:46:32.689Z,86.20
2022-11-01T04:49:00.966Z,87.03
2022-11-01T04:51:31.438Z,88.77
2022-11-01T04:53:59.671Z,93.47
2022-11-01T04:56:27.887Z,91.73
2022-11-01T04:58:58.326Z,91.40
2022-11-01T05:01:26.833Z,95.40
2022-11-01T05:03:55.821Z,94.57
2022-11-01T05:06:24.098Z,91.23
2022-11-01T05:08:52.359Z,91.57
2022-11-01T05:11:25.487Z,89.78
2022-11-01T05:13:53.935Z,96.20
2022-11-01T05:16:23.583Z,91.30
2022-11-01T05:18:51.802Z,92.80
2022-11-01T05:21:20.045Z,87.70
2022-11-01T05:23:49.774Z,94.57
2022-11-01T05:26:20.437Z,91.82
2022-11-01T05:28:49.150Z,89.63
2022-11-01T05:31:17.349Z,86.27
2022-11-01T05:33:47.023Z,87.13
2022-11-01T05:36:17.636Z,90.25
2022-11-01T05:38:45.845Z,87.35
2022-11-01T05:43:47.209Z,89.97
2022-11-01T05:46:15.429Z,89.40
2022-11-01T05:48:44.209Z,88.17
2022-11-01T05:51:13.871Z,90.57
2022-11-01T05:53:42.159Z,87.97
2022-11-01T05:56:10.587Z,86.72
2022-11-01T05:58:38.861Z,86.43
2022-11-01T06:01:08.738Z,84.88
2022-11-01T06:03:38.139Z,84.10
2022-11-01T06:06:06.853Z,85.63
2022-11-01T06:08:39.026Z,82.80
2022-11-01T06:11:08.267Z,75.68
2022-11-01T06:13:36.726Z,78.68
2022-11-01T06:16:07.545Z,80.13
2022-11-01T06:18:35.750Z,78.38
2022-11-01T06:21:04.299Z,74.47
2022-11-01T06:23:32.510Z,78.30
2022-11-01T06:26:05.554Z,72.25
2022-11-01T06:28:33.911Z,69.15
2022-11-01T06:31:02.752Z,69.43
2022-11-01T06:33:31.057Z,68.72
2022-11-01T06:35:59.516Z,68.55
2022-11-01T06:38:30.495Z,68.93
2022-11-01T06:41:00.875Z,67.60
2022-11-01T06:43:30.463Z,70.90
2022-11-01T06:46:01.061Z,66.25
2022-11-01T06:48:29.784Z,67.30
2022-11-01T06:50:58.415Z,66.90
2022-11-01T06:53:26.810Z,69.40
2022-11-01T06:55:59.972Z,70.90
2022-11-01T06:58:28.333Z,67.25
2022-11-01T07:00:58.030Z,69.28
2022-11-01T07:03:29.403Z,67.35
2022-11-01T07:06:00.574Z,68.75
2022-11-01T07:08:30.999Z,65.00
2022-11-01T07:10:59.232Z,69.05
2022-11-01T07:13:29.024Z,67.10
2022-11-01T07:15:58.656Z,70.05
2022-11-01T07:18:26.901Z,67.65
2022-11-01T07:20:55.137Z,68.93
2022-11-01T07:23:23.688Z,71.30
2022-11-01T07:25:52.968Z,69.68
2022-11-01T07:28:21.281Z,70.68
2022-11-01T07:30:52.970Z,69.93
2022-11-01T07:33:22.930Z,66.93
2022-11-01T07:35:52.569Z,73.45
2022-11-01T07:38:23.044Z,73.45
2022-11-01T07:40:53.325Z,73.00
2022-11-01T07:43:22.631Z,71.32
2022-11-01T07:45:51.120Z,72.93
2022-11-01T07:48:20.836Z,72.35
2022-11-01T07:50:50.787Z,73.20
2022-11-01T07:53:20.196Z,73.63
2022-11-01T07:55:48.647Z,70.95
2022-11-01T07:58:19.448Z,72.63
2022-11-01T08:00:48.208Z,73.57
2022-11-01T08:03:19.310Z,73.80
2022-11-01T08:05:49.096Z,74.30
2022-11-01T08:08:18.929Z,75.45
2022-11-01T08:10:47.645Z,76.67
2022-11-01T08:13:18.050Z,74.45
2022-11-01T08:15:49.584Z,77.25
2022-11-01T08:18:19.086Z,74.07
2022-11-01T08:20:47.466Z,74.17
2022-11-01T08:23:16.046Z,75.88
2022-11-01T08:25:48.892Z,75.20
2022-11-01T08:28:19.075Z,74.63
2022-11-01T08:30:49.438Z,74.35
2022-11-01T08:33:17.798Z,79.63
2022-11-01T08:35:50.341Z,73.93
2022-11-01T08:38:19.563Z,73.25
2022-11-01T08:40:52.409Z,74.55
2022-11-01T08:43:20.804Z,72.43
2022-11-01T08:45:49.294Z,68.30
2022-11-01T08:48:17.794Z,72.20
2022-11-01T08:50:48.116Z,70.55
2022-11-01T08:53:16.636Z,74.18
2022-11-01T08:55:44.955Z,70.90
2022-11-01T08:58:14.571Z,72.55
2022-11-01T09:00:42.823Z,69.63
2022-11-01T09:03:11.229Z,66.00
2022-11-01T09:05:39.690Z,64.38
2022-11-01T09:08:08.362Z,56.78
2022-11-01T09:10:36.824Z,59.63
2022-11-01T09:13:05.385Z,54.13
2022-11-01T09:15:35.356Z,57.30
2022-11-01T09:18:07.268Z,53.47
2022-11-01T09:20:35.610Z,50.83
2022-11-01T09:23:04.550Z,50.58
2022-11-01T09:25:33.530Z,50.75
2022-11-01T09:28:04.404Z,48.00
2022-11-01T09:41:03.130Z,36.75
2022-11-01T09:43:36.279Z,40.58
2022-11-01T09:46:07.752Z,37.22
2022-11-01T09:48:38.041Z,37.10
2022-11-01T09:51:12.435Z,35.03
2022-11-01T09:53:40.841Z,36.45
2022-11-01T09:56:12.468Z,34.03
2022-11-01T10:01:41.305Z,34.47
2022-11-01T10:04:34.777Z,31.42
2022-11-01T10:07:09.235Z,32.03
2022-11-01T10:09:47.610Z,35.13
2022-11-01T10:12:33.817Z,32.25
2022-11-01T10:15:19.538Z,32.30
2022-11-01T10:17:53.718Z,30.15
2022-11-01T10:20:25.749Z,30.20
2022-11-01T10:22:54.192Z,35.75
2022-11-01T10:25:24.572Z,34.15
2022-11-01T10:28:00.666Z,30.40
2022-11-01T10:30:34.222Z,29.88
2022-11-01T10:33:20.019Z,26.10
2022-11-01T10:35:54.732Z,27.35
2022-11-01T10:38:49.966Z,26.42
2022-11-01T10:41:27.170Z,26.05
2022-11-01T10:43:58.184Z,28.67
2022-11-01T11:09:05.627Z,21.05
2022-11-01T11:11:37.498Z,18.97
2022-11-01T11:14:19.457Z,16.92
2022-11-01T11:59:57.407Z,14.00
2022-11-01T12:02:28.107Z,15.23
2022-11-01T12:05:00.965Z,13.32
2022-11-01T12:07:32.315Z,14.93
2022-11-01T12:10:03.376Z,13.85
2022-11-01T12:12:34.803Z,12.02
2022-11-01T12:15:04.027Z,15.32
2022-11-01T12:17:44.445Z,12.05
2022-11-01T12:20:20.091Z,11.77
2022-11-01T12:22:52.421Z,10.10
2022-11-01T12:25:23.398Z,8.73
2022-11-01T12:35:35.729Z,8.73
2022-11-01T12:40:45.281Z,9.90
2022-11-01T12:45:53.835Z,7.30
2022-11-01T12:48:29.227Z,9.60
2022-11-01T12:51:05.390Z,6.18
2022-11-01T12:53:40.469Z,5.53
2022-11-01T12:56:11.719Z,10.30
2022-11-01T12:58:40.310Z,6.10
2022-11-01T13:01:25.949Z,11.50
2022-11-01T13:06:54.441Z,5.20
2022-11-01T13:09:32.164Z,5.68
2022-11-01T13:12:07.025Z,4.72
2022-11-01T13:14:50.990Z,5.68
2022-11-01T13:17:26.851Z,5.18
2022-11-01T13:20:06.758Z,5.40
2022-11-01T13:22:44.110Z,5.15
2022-11-01T13:25:22.828Z,5.80
2022-11-01T13:27:59.532Z,3.78
2022-11-01T13:30:28.197Z,4.70
2022-11-01T13:33:01.551Z,6.47
2022-11-01T13:35:52.226Z,4.65
2022-11-01T13:38:30.906Z,5.10
2022-11-01T13:41:07.251Z,4.65
2022-11-01T13:43:39.615Z,5.22
2022-11-01T13:46:46.119Z,4.90
2022-11-01T13:49:49.850Z,3.97
2022-11-01T13:52:21.836Z,4.40
2022-11-01T13:54:57.653Z,6.40
2022-11-01T13:57:29.023Z,6.70
2022-11-01T14:00:01.355Z,8.65
2022-11-01T14:02:58.199Z,62.65
2022-11-01T14:05:39.896Z,17.98
2022-11-01T14:11:11.742Z,7.97
2022-11-01T14:13:41.495Z,6.18
2022-11-01T14:16:28.890Z,7.03
2022-11-01T14:19:21.090Z,5.72
2022-11-01T14:21:53.500Z,6.88
2022-11-01T14:24:35.109Z,5.55
2022-11-01T14:27:20.181Z,6.15
2022-11-01T14:29:55.349Z,6.03
2022-11-01T14:32:26.325Z,5.90
2022-11-01T14:35:03.129Z,8.27
2022-11-01T14:40:23.670Z,4.97
2022-11-01T14:42:56.331Z,6.47
2022-11-01T14:45:29.710Z,8.75
2022-11-01T14:48:02.062Z,7.72
2022-11-01T14:50:37.402Z,7.07
2022-11-01T14:53:11.256Z,124.85
2022-11-01T14:55:39.483Z,50.85
2022-11-01T14:58:14.804Z,51.30
2022-11-01T15:00:43.277Z,23.50
2022-11-01T15:03:11.811Z,14.20
2022-11-01T15:08:24.545Z,7.22
2022-11-01T15:10:54.177Z,6.20
2022-11-01T15:13:28.970Z,8.82
2022-11-01T15:16:07.572Z,8.38
2022-11-01T15:21:13.818Z,10.20
2022-11-01T15:23:48.152Z,9.10
2022-11-01T15:26:19.485Z,9.85
2022-11-01T15:28:53.210Z,7.88
2022-11-01T15:31:22.557Z,9.93
2022-11-01T15:33:56.433Z,9.15
2022-11-01T15:36:29.505Z,12.38
2022-11-01T15:38:59.969Z,8.45
2022-11-01T15:44:03.573Z,6.95
2022-11-01T15:59:27.351Z,8.15
2022-11-01T16:01:58.585Z,9.07
2022-11-01T16:04:32.301Z,9.60
2022-11-01T16:35:39.028Z,8.93
2022-11-01T16:38:23.189Z,6.70
2022-11-01T16:40:54.944Z,5.30
2022-11-01T16:43:27.237Z,7.10
2022-11-01T16:45:57.374Z,7.70
2022-11-01T16:48:27.989Z,13.27
2022-11-01T16:50:58.249Z,7.65
2022-11-01T16:53:28.119Z,5.65
2022-11-01T16:56:23.329Z,9.23
2022-11-01T16:58:51.562Z,11.15
2022-11-01T17:01:29.011Z,11.43
2022-11-01T17:04:02.254Z,11.20
2022-11-01T17:06:33.419Z,10.35
2022-11-01T17:09:04.406Z,10.13
2022-11-01T17:11:32.625Z,10.65
2022-11-01T17:14:00.956Z,10.27
2022-11-01T17:16:30.725Z,11.65
2022-11-01T17:19:01.589Z,13.40
2022-11-01T17:21:32.208Z,9.52
2022-11-01T17:24:00.587Z,8.55
2022-11-01T17:26:29.608Z,10.23
2022-11-01T17:28:57.933Z,8.80
2022-11-01T17:31:26.208Z,11.63
2022-11-01T17:33:55.872Z,10.15
2022-11-01T17:36:24.258Z,11.00
2022-11-01T17:38:52.512Z,11.18
2022-11-01T17:41:21.185Z,8.88
2022-11-01T17:43:51.510Z,9.18
2022-11-01T17:46:26.227Z,7.75
2022-11-01T17:48:55.953Z,7.43
2022-11-01T17:51:24.263Z,9.45
2022-11-01T17:53:55.764Z,9.63
2022-11-01T17:56:24.680Z,9.57
2022-11-01T17:58:53.904Z,9.65
2022-11-01T18:01:22.733Z,11.82
2022-11-01T18:03:51.356Z,10.27
2022-11-01T18:06:21.181Z,8.93
2022-11-01T18:08:51.904Z,10.02
2022-11-01T18:11:35.786Z,8.85
2022-11-01T18:14:13.582Z,8.52
2022-11-01T18:16:48.347Z,10.35
2022-11-01T18:19:36.229Z,8.05
2022-11-01T18:22:14.287Z,9.52
2022-11-01T18:24:46.149Z,8.95
2022-11-01T18:27:19.409Z,8.70
2022-11-01T18:40:02.343Z,10.90
2022-11-01T18:45:18.649Z,9.57
2022-11-01T18:47:53.252Z,8.77
2022-11-01T18:50:25.335Z,9.73
2022-11-01T18:55:33.689Z,7.82
2022-11-01T19:00:37.726Z,10.07
2022-11-01T19:03:14.023Z,9.80
2022-11-01T19:05:42.578Z,7.10
2022-11-01T19:08:22.864Z,10.45
2022-11-01T19:10:51.749Z,5.25
2022-11-01T19:13:27.248Z,5.32
2022-11-01T19:15:58.056Z,7.18
2022-11-01T19:18:26.691Z,11.13
2022-11-01T19:20:56.107Z,6.70
2022-11-01T19:23:34.904Z,7.15
2022-11-01T19:26:04.058Z,9.55
2022-11-01T19:28:37.660Z,5.60
2022-11-01T19:31:09.023Z,7.47
2022-11-01T19:33:40.144Z,10.82
2022-11-01T19:36:15.506Z,8.00
2022-11-01T19:38:45.532Z,9.85
2022-11-01T19:41:19.654Z,11.90
2022-11-01T19:46:21.731Z,7.90
2022-11-01T19:48:51.989Z,10.48
2022-11-01T19:51:23.585Z,9.18
2022-11-01T19:53:55.353Z,9.52
2022-11-01T19:56:25.275Z,11.70
2022-11-01T19:58:57.476Z,9.15
2022-11-01T20:01:40.792Z,7.72
2022-11-01T20:04:24.461Z,12.80
2022-11-01T20:07:01.269Z,8.57
2022-11-01T20:09:32.402Z,5.65
2022-11-01T20:12:00.713Z,7.68
2022-11-01T20:14:29.253Z,8.02
2022-11-01T20:16:57.470Z,7.10
2022-11-01T20:19:25.800Z,10.60
2022-11-01T20:21:54.107Z,6.03
2022-11-01T20:24:22.443Z,11.30
2022-11-01T20:26:52.223Z,6.97
2022-11-01T20:29:20.545Z,11.27
2022-11-01T20:31:48.783Z,7.03
2022-11-01T20:34:17.118Z,11.60
2022-11-01T20:37:02.186Z,6.18
2022-11-01T20:39:36.462Z,8.70
2022-11-01T20:42:08.041Z,11.32
2022-11-01T20:44:36.294Z,6.63
2022-11-01T20:47:04.521Z,11.93
2022-11-01T20:49:32.797Z,9.40
2022-11-01T21:07:31.081Z,7.03
2022-11-01T21:10:01.705Z,5.03
2022-11-01T21:12:44.913Z,6.85
2022-11-01T21:15:35.089Z,8.60
2022-11-01T21:18:44.232Z,8.75
2022-11-01T21:23:56.046Z,6.82
2022-11-01T21:26:26.616Z,4.97
2022-11-01T21:28:59.706Z,10.52
2022-11-01T21:31:31.786Z,8.68
2022-11-01T21:34:04.300Z,8.93
2022-11-01T21:36:35.906Z,7.35
2022-11-01T21:39:10.138Z,12.18
2022-11-01T21:41:44.225Z,10.93
2022-11-01T21:44:22.753Z,6.18
2022-11-01T22:26:35.879Z,6.38
2022-11-01T22:29:04.080Z,7.50
2022-11-01T22:31:32.459Z,7.18
2022-11-01T22:34:05.217Z,13.50
2022-11-01T22:36:37.300Z,16.25
2022-11-01T22:39:14.157Z,7.55
2022-11-01T22:41:43.165Z,5.75
2022-11-01T22:44:17.009Z,10.43
2022-11-01T22:46:47.908Z,8.82
2022-11-01T22:49:23.677Z,12.15
2022-11-01T22:51:54.612Z,12.20
2022-11-01T22:54:31.388Z,8.30
2022-11-01T22:57:10.609Z,7.57
2022-11-01T22:59:42.549Z,8.82
2022-11-01T23:02:27.988Z,7.63
2022-11-01T23:05:02.581Z,7.13
2022-11-01T23:07:35.764Z,8.07
2022-11-01T23:10:07.747Z,12.38
2022-11-01T23:12:55.374Z,9.85
2022-11-01T23:15:28.649Z,9.85
2022-11-01T23:18:03.800Z,8.93
2022-11-01T23:20:37.987Z,9.85
2022-11-01T23:23:06.856Z,10.43
2022-11-01T23:25:35.456Z,9.18
2022-11-01T23:28:03.776Z,9.02
2022-11-01T23:30:34.471Z,8.20
2022-11-01T23:35:31.497Z,9.55
2022-11-01T23:38:01.472Z,8.85
2022-11-01T23:40:34.409Z,7.15
2022-11-01T23:43:02.891Z,8.32
2022-11-01T23:45:34.527Z,6.60
2022-11-01T23:48:03.917Z,10.25
2022-11-01T23:50:35.461Z,10.85
2022-11-01T23:53:08.145Z,8.32
2022-11-01T23:55:39.579Z,9.63
2022-11-01T23:58:11.236Z,8.30
